createdAt,value
2023-02-11T00:00:35.696Z,58.47
2023-02-11T00:03:38.960Z,58.41
2023-02-11T00:06:41.473Z,58.53
2023-02-11T00:09:44.040Z,58.51
2023-02-11T00:12:46.408Z,58.59
2023-02-11T00:15:49.839Z,58.72
2023-02-11T00:18:54.111Z,58.79
2023-02-11T00:21:56.958Z,58.92
2023-02-11T00:24:59.750Z,58.67
2023-02-11T00:28:02.487Z,58.79
2023-02-11T00:31:05.046Z,58.72
2023-02-11T00:34:07.979Z,59.04
2023-02-11T00:37:12.098Z,59.21
2023-02-11T00:40:17.345Z,59.37
2023-02-11T00:43:19.644Z,59.45
2023-02-11T00:46:22.834Z,59.68
2023-02-11T00:49:25.465Z,59.89
2023-02-11T00:52:28.062Z,59.79
2023-02-11T00:55:30.956Z,60.04
2023-02-11T00:58:33.830Z,60.23
2023-02-11T01:01:36.309Z,60.37
2023-02-11T01:04:39.011Z,59.73
2023-02-11T01:07:42.770Z,59.62
2023-02-11T01:10:45.423Z,59.17
2023-02-11T01:13:49.383Z,58.70
2023-02-11T01:16:52.021Z,58.37
2023-02-11T01:19:56.709Z,58.66
2023-02-11T01:22:59.329Z,57.69
2023-02-11T01:26:01.971Z,57.91
2023-02-11T01:29:04.934Z,57.48
2023-02-11T01:32:07.291Z,57.26
2023-02-11T01:35:10.167Z,57.35
2023-02-11T01:38:24.002Z,57.29
2023-02-11T01:41:27.483Z,57.64
2023-02-11T01:44:35.956Z,57.51
2023-02-11T01:47:38.585Z,57.84
2023-02-11T01:50:42.768Z,57.72
2023-02-11T01:54:06.180Z,57.63
2023-02-11T01:57:25.331Z,57.98
2023-02-11T02:00:37.211Z,58.22
2023-02-11T02:03:43.649Z,58.13
2023-02-11T02:06:56.000Z,58.36
2023-02-11T02:10:07.125Z,58.50
2023-02-11T02:13:12.077Z,58.64
2023-02-11T02:16:17.973Z,58.81
2023-02-11T02:19:48.413Z,59.17
2023-02-11T02:23:21.708Z,59.32
2023-02-11T02:26:32.943Z,59.68
2023-02-11T02:29:57.478Z,59.64
2023-02-11T02:33:24.787Z,60.03
2023-02-11T02:37:09.678Z,60.26
2023-02-11T02:40:25.633Z,60.46
2023-02-11T02:43:29.458Z,60.23
2023-02-11T02:46:33.893Z,60.26
2023-02-11T02:49:39.003Z,60.61
2023-02-11T02:53:18.783Z,60.96
2023-02-11T02:56:33.618Z,61.09
2023-02-11T02:59:51.570Z,61.01
2023-02-11T03:03:13.163Z,60.90
2023-02-11T03:06:31.238Z,60.60
2023-02-11T03:10:00.438Z,60.36
2023-02-11T03:13:05.337Z,60.34
2023-02-11T03:16:19.932Z,60.42
2023-02-11T03:19:24.308Z,60.48
2023-02-11T03:22:29.388Z,60.44
2023-02-11T03:25:37.752Z,60.25
2023-02-11T03:29:25.449Z,60.15
2023-02-11T03:32:30.394Z,60.41
2023-02-11T03:35:39.742Z,60.26
2023-02-11T03:38:51.880Z,60.58
2023-02-11T03:41:58.602Z,60.80
2023-02-11T03:45:09.601Z,60.79
2023-02-11T03:48:21.453Z,60.65
2023-02-11T03:51:25.458Z,60.65
2023-02-11T03:54:30.953Z,60.69
2023-02-11T03:57:34.728Z,60.76
2023-02-11T04:00:39.868Z,60.66
2023-02-11T04:03:42.494Z,60.65
2023-02-11T04:06:44.866Z,60.56
2023-02-11T04:09:47.483Z,60.74
2023-02-11T04:12:49.850Z,60.72
2023-02-11T04:15:52.833Z,60.79
2023-02-11T04:18:55.304Z,60.87
2023-02-11T04:21:57.976Z,60.91
2023-02-11T04:25:00.277Z,61.01
2023-02-11T04:28:03.034Z,60.95
2023-02-11T04:31:05.632Z,60.96
2023-02-11T04:34:08.234Z,60.71
2023-02-11T04:37:10.584Z,60.53
2023-02-11T04:40:13.520Z,60.67
2023-02-11T04:43:16.255Z,60.76
2023-02-11T04:46:18.943Z,60.77
2023-02-11T04:49:21.514Z,60.92
2023-02-11T04:52:24.131Z,61.13
2023-02-11T04:55:26.438Z,61.25
2023-02-11T04:58:29.056Z,61.15
2023-02-11T05:01:31.858Z,61.08
2023-02-11T05:04:34.552Z,61.11
2023-02-11T05:07:36.995Z,61.10
2023-02-11T05:10:39.629Z,60.96
2023-02-11T05:13:42.020Z,60.96
2023-02-11T05:16:44.744Z,60.85
2023-02-11T05:19:47.086Z,61.03
2023-02-11T05:22:49.769Z,61.26
2023-02-11T05:25:56.725Z,61.55
2023-02-11T05:28:59.543Z,61.64
2023-02-11T05:32:01.868Z,61.71
2023-02-11T05:35:04.764Z,61.80
2023-02-11T05:38:07.094Z,61.84
2023-02-11T05:41:11.217Z,61.87
2023-02-11T05:44:13.630Z,61.99
2023-02-11T05:47:16.277Z,61.94
2023-02-11T05:50:19.044Z,61.81
2023-02-11T05:53:22.182Z,61.74
2023-02-11T05:56:24.523Z,61.56
2023-02-11T05:59:27.126Z,61.55
2023-02-11T06:02:29.476Z,61.51
2023-02-11T06:05:32.430Z,61.70
2023-02-11T06:08:35.729Z,61.76
2023-02-11T06:11:39.600Z,61.90
2023-02-11T06:14:42.310Z,61.68
2023-02-11T06:17:44.903Z,61.70
2023-02-11T06:20:47.198Z,61.99
2023-02-11T06:23:49.785Z,62.28
2023-02-11T06:26:52.279Z,62.43
2023-02-11T06:29:54.876Z,62.42
2023-02-11T06:32:57.260Z,62.49
2023-02-11T06:36:00.098Z,62.20
2023-02-11T06:39:02.844Z,62.12
2023-02-11T06:42:08.041Z,62.27
2023-02-11T06:45:11.133Z,61.98
2023-02-11T06:48:13.853Z,61.69
2023-02-11T06:51:16.830Z,61.48
2023-02-11T06:54:19.482Z,61.33
2023-02-11T06:57:21.850Z,61.27
2023-02-11T07:00:25.548Z,60.88
2023-02-11T07:03:28.026Z,60.90
2023-02-11T07:06:30.674Z,60.62
2023-02-11T07:09:33.043Z,60.32
2023-02-11T07:12:35.690Z,59.97
2023-02-11T07:15:38.282Z,59.78
2023-02-11T07:18:43.634Z,59.65
2023-02-11T07:21:45.944Z,59.65
2023-02-11T07:24:48.553Z,59.69
2023-02-11T07:27:51.111Z,59.60
2023-02-11T07:30:53.894Z,59.24
2023-02-11T07:33:59.975Z,58.96
2023-02-11T07:37:03.072Z,58.44
2023-02-11T07:40:05.904Z,58.06
2023-02-11T07:43:09.483Z,57.59
2023-02-11T07:46:20.674Z,56.93
2023-02-11T07:49:23.404Z,56.11
2023-02-11T07:52:25.807Z,55.85
2023-02-11T07:55:29.578Z,55.92
2023-02-11T07:58:32.695Z,55.68
2023-02-11T08:01:35.346Z,55.77
2023-02-11T08:04:56.154Z,56.01
2023-02-11T08:07:58.748Z,55.72
2023-02-11T08:11:13.906Z,55.53
2023-02-11T08:14:16.511Z,55.50
2023-02-11T08:17:18.859Z,55.16
2023-02-11T08:20:21.452Z,54.98
2023-02-11T08:23:24.501Z,54.44
2023-02-11T08:26:29.263Z,54.08
2023-02-11T08:29:31.573Z,54.02
2023-02-11T08:32:35.197Z,53.39
2023-02-11T08:35:39.842Z,53.30
2023-02-11T08:38:43.667Z,52.96
2023-02-11T08:41:48.924Z,53.26
2023-02-11T08:44:51.590Z,53.09
2023-02-11T08:47:53.950Z,53.18
2023-02-11T08:50:57.650Z,52.86
2023-02-11T08:54:00.915Z,52.78
2023-02-11T08:57:04.131Z,51.51
2023-02-11T09:00:07.080Z,51.70
2023-02-11T09:03:09.717Z,50.50
2023-02-11T09:06:12.870Z,49.65
2023-02-11T09:09:16.534Z,49.11
2023-02-11T09:12:18.866Z,48.14
2023-02-11T09:15:21.517Z,47.29
2023-02-11T09:18:23.993Z,45.69
2023-02-11T09:21:27.678Z,44.77
2023-02-11T09:24:30.022Z,43.72
2023-02-11T09:27:33.025Z,42.53
2023-02-11T09:30:37.392Z,40.39
2023-02-11T09:33:47.865Z,37.80
2023-02-11T09:36:50.292Z,37.93
2023-02-11T09:39:52.902Z,35.50
2023-02-11T09:43:05.920Z,35.71
2023-02-11T09:46:12.926Z,35.93
2023-02-11T09:49:21.941Z,36.11
2023-02-11T09:52:41.785Z,37.49
2023-02-11T09:55:48.363Z,36.00
2023-02-11T09:58:51.142Z,35.47
2023-02-11T10:02:40.222Z,35.87
2023-02-11T10:06:04.324Z,36.15
2023-02-11T10:09:27.765Z,37.52
2023-02-11T10:12:41.067Z,38.58
2023-02-11T10:16:08.081Z,37.80
2023-02-11T10:19:26.579Z,39.28
2023-02-11T10:22:37.657Z,40.31
2023-02-11T10:25:56.363Z,39.97
2023-02-11T10:29:05.659Z,40.01
2023-02-11T10:32:25.025Z,40.21
2023-02-11T10:35:27.402Z,38.96
2023-02-11T10:38:30.770Z,38.63
2023-02-11T10:41:37.054Z,38.31
2023-02-11T10:44:50.043Z,38.24
2023-02-11T10:47:52.577Z,37.80
2023-02-11T10:51:26.866Z,38.56
2023-02-11T10:54:29.148Z,39.26
2023-02-11T10:57:52.717Z,38.62
2023-02-11T11:00:57.249Z,37.82
2023-02-11T11:04:00.053Z,37.03
2023-02-11T11:07:14.207Z,36.86
2023-02-11T11:10:46.982Z,36.10
2023-02-11T11:14:00.351Z,35.70
2023-02-11T11:17:02.989Z,35.22
2023-02-11T11:20:28.520Z,34.60
2023-02-11T11:23:31.849Z,33.88
2023-02-11T11:26:43.806Z,33.99
2023-02-11T11:29:49.876Z,33.93
2023-02-11T11:32:52.646Z,34.04
2023-02-11T11:36:03.349Z,34.57
2023-02-11T11:39:20.542Z,35.89
2023-02-11T11:42:34.301Z,36.23
2023-02-11T11:45:36.669Z,35.69
2023-02-11T11:48:44.278Z,35.85
2023-02-11T11:51:58.061Z,36.29
2023-02-11T11:55:53.088Z,35.99
2023-02-11T11:58:56.098Z,36.50
2023-02-11T12:02:08.682Z,35.88
2023-02-11T12:05:46.662Z,35.70
2023-02-11T12:09:00.396Z,35.31
2023-02-11T12:12:21.732Z,35.63
2023-02-11T12:15:40.605Z,35.18
2023-02-11T12:18:53.974Z,35.00
2023-02-11T12:22:23.906Z,35.18
2023-02-11T12:26:25.176Z,35.71
2023-02-11T12:29:45.979Z,36.26
2023-02-11T12:33:07.638Z,35.85
2023-02-11T12:36:25.168Z,34.86
2023-02-11T12:39:47.444Z,34.69
2023-02-11T12:43:17.797Z,34.17
2023-02-11T12:46:21.092Z,34.14
2023-02-11T12:49:34.487Z,33.97
2023-02-11T12:52:49.019Z,34.12
2023-02-11T12:55:55.235Z,33.84
2023-02-11T12:59:00.647Z,33.83
2023-02-11T13:02:16.806Z,33.61
2023-02-11T13:05:57.644Z,33.43
2023-02-11T13:09:04.477Z,32.87
2023-02-11T13:12:26.762Z,31.14
2023-02-11T13:15:30.311Z,29.94
2023-02-11T13:19:13.568Z,29.00
2023-02-11T13:22:44.689Z,30.07
2023-02-11T13:25:58.519Z,30.34
2023-02-11T13:29:27.517Z,30.36
2023-02-11T13:32:55.844Z,31.24
2023-02-11T13:35:58.063Z,31.21
2023-02-11T13:39:04.690Z,31.74
2023-02-11T13:42:15.688Z,31.98
2023-02-11T13:45:33.805Z,32.57
2023-02-11T13:48:39.015Z,33.05
2023-02-11T13:51:43.178Z,33.29
2023-02-11T13:54:51.757Z,33.57
2023-02-11T13:58:29.747Z,33.50
2023-02-11T14:02:12.546Z,33.54
2023-02-11T14:05:36.874Z,34.03
2023-02-11T14:08:58.656Z,34.13
2023-02-11T14:12:23.755Z,34.47
2023-02-11T14:15:27.260Z,34.68
2023-02-11T14:18:45.212Z,35.19
2023-02-11T14:21:47.581Z,35.09
2023-02-11T14:25:01.403Z,36.13
2023-02-11T14:28:32.693Z,35.22
2023-02-11T14:32:06.140Z,35.25
2023-02-11T14:35:45.420Z,35.57
2023-02-11T14:39:26.689Z,35.87
2023-02-11T14:42:30.998Z,36.10
2023-02-11T14:45:37.059Z,35.42
2023-02-11T14:48:45.548Z,35.84
2023-02-11T14:51:48.407Z,35.97
2023-02-11T14:54:51.900Z,37.50
2023-02-11T14:58:19.569Z,36.37
2023-02-11T15:01:35.364Z,36.39
2023-02-11T15:04:39.972Z,36.62
2023-02-11T15:08:02.919Z,36.54
2023-02-11T15:11:12.164Z,37.91
2023-02-11T15:14:29.844Z,37.97
2023-02-11T15:17:32.968Z,37.97
2023-02-11T15:20:35.988Z,37.85
2023-02-11T15:23:40.704Z,37.81
2023-02-11T15:26:43.259Z,37.69
2023-02-11T15:29:49.465Z,38.03
2023-02-11T15:33:00.692Z,38.39
2023-02-11T15:36:03.882Z,38.73
2023-02-11T15:39:32.971Z,38.47
2023-02-11T15:42:50.638Z,39.14
2023-02-11T15:45:59.727Z,39.53
2023-02-11T15:49:02.718Z,39.44
2023-02-11T15:52:08.213Z,40.10
2023-02-11T15:55:15.914Z,40.43
2023-02-11T15:58:19.113Z,40.75
2023-02-11T16:01:37.072Z,41.24
2023-02-11T16:04:39.851Z,41.50
2023-02-11T16:07:49.811Z,41.17
2023-02-11T16:11:03.334Z,41.55
2023-02-11T16:14:23.335Z,41.90
2023-02-11T16:17:28.661Z,42.35
2023-02-11T16:20:31.538Z,42.84
2023-02-11T16:23:42.061Z,42.06
2023-02-11T16:26:48.936Z,42.17
2023-02-11T16:29:52.398Z,42.79
2023-02-11T16:32:55.083Z,41.99
2023-02-11T16:36:02.043Z,41.69
2023-02-11T16:39:04.380Z,42.80
2023-02-11T16:42:07.720Z,42.31
2023-02-11T16:45:10.157Z,42.72
2023-02-11T16:48:18.232Z,42.65
2023-02-11T16:51:20.769Z,42.17
2023-02-11T16:54:24.107Z,42.33
2023-02-11T16:57:29.853Z,43.50
2023-02-11T17:00:33.096Z,42.79
2023-02-11T17:03:40.037Z,42.78
2023-02-11T17:06:42.958Z,43.70
2023-02-11T17:09:45.549Z,44.34
2023-02-11T17:12:49.976Z,44.90
2023-02-11T17:15:52.622Z,44.76
2023-02-11T17:18:55.477Z,44.91
2023-02-11T17:21:57.883Z,44.27
2023-02-11T17:25:01.012Z,44.10
2023-02-11T17:28:08.194Z,44.95
2023-02-11T17:31:11.152Z,45.15
2023-02-11T17:34:14.000Z,45.95
2023-02-11T17:37:16.759Z,46.07
2023-02-11T17:40:19.312Z,46.41
2023-02-11T17:43:28.759Z,46.01
2023-02-11T17:46:34.569Z,46.26
2023-02-11T17:49:37.311Z,45.40
2023-02-11T17:52:39.764Z,46.27
2023-02-11T17:55:42.749Z,46.21
2023-02-11T17:58:48.869Z,46.04
2023-02-11T18:01:52.012Z,47.03
2023-02-11T18:04:57.558Z,45.42
2023-02-11T18:07:59.912Z,45.14
2023-02-11T18:11:02.834Z,45.63
2023-02-11T18:14:07.808Z,45.42
2023-02-11T18:17:10.419Z,45.87
2023-02-11T18:20:12.971Z,45.95
2023-02-11T18:23:15.610Z,46.52
2023-02-11T18:26:20.554Z,45.47
2023-02-11T18:29:23.206Z,45.63
2023-02-11T18:32:25.669Z,45.19
2023-02-11T18:35:28.261Z,46.30
2023-02-11T18:38:30.563Z,46.42
2023-02-11T18:41:33.694Z,47.09
2023-02-11T18:44:36.649Z,47.35
2023-02-11T18:47:39.371Z,47.21
2023-02-11T18:50:43.329Z,47.19
2023-02-11T18:53:45.966Z,47.55
2023-02-11T18:56:48.302Z,47.05
2023-02-11T18:59:51.254Z,47.02
2023-02-11T19:02:53.581Z,47.32
2023-02-11T19:05:56.221Z,47.38
2023-02-11T19:09:01.800Z,47.46
2023-02-11T19:12:07.271Z,47.52
2023-02-11T19:15:09.760Z,47.29
2023-02-11T19:18:13.849Z,47.20
2023-02-11T19:21:16.155Z,46.76
2023-02-11T19:24:19.894Z,46.95
2023-02-11T19:27:22.413Z,47.19
2023-02-11T19:30:25.038Z,47.10
2023-02-11T19:33:27.312Z,46.59
2023-02-11T19:36:30.497Z,47.27
2023-02-11T19:39:32.981Z,47.12
2023-02-11T19:42:35.658Z,47.61
2023-02-11T19:45:38.096Z,47.55
2023-02-11T19:48:41.376Z,47.34
2023-02-11T19:51:43.938Z,47.66
2023-02-11T19:54:46.865Z,47.52
2023-02-11T19:57:49.235Z,47.38
2023-02-11T20:00:51.871Z,46.95
2023-02-11T20:03:57.100Z,47.07
2023-02-11T20:06:59.475Z,47.78
2023-02-11T20:10:02.347Z,48.31
2023-02-11T20:13:04.994Z,48.42
2023-02-11T20:16:11.003Z,48.34
2023-02-11T20:19:17.734Z,48.42
2023-02-11T20:22:20.678Z,48.50
2023-02-11T20:25:23.038Z,49.33
2023-02-11T20:28:25.761Z,49.36
2023-02-11T20:31:30.115Z,49.89
2023-02-11T20:34:32.946Z,50.08
2023-02-11T20:37:35.301Z,50.77
2023-02-11T20:40:38.484Z,50.61
2023-02-11T20:43:41.897Z,50.96
2023-02-11T20:46:48.261Z,51.07
2023-02-11T20:49:54.483Z,51.00
2023-02-11T20:52:57.260Z,51.29
2023-02-11T20:56:06.370Z,51.60
2023-02-11T20:59:09.834Z,51.79
2023-02-11T21:02:13.594Z,52.52
2023-02-11T21:05:16.535Z,53.08
2023-02-11T21:08:19.007Z,53.70
2023-02-11T21:11:21.702Z,54.67
2023-02-11T21:14:26.922Z,54.67
2023-02-11T21:17:29.855Z,54.70
2023-02-11T21:20:32.220Z,55.30
2023-02-11T21:23:35.925Z,55.71
2023-02-11T21:26:39.102Z,55.75
2023-02-11T21:29:53.458Z,56.06
2023-02-11T21:32:58.961Z,56.40
2023-02-11T21:36:04.269Z,56.49
2023-02-11T21:39:06.970Z,56.73
2023-02-11T21:42:09.779Z,56.97
2023-02-11T21:45:13.319Z,56.80
2023-02-11T21:48:17.942Z,57.51
2023-02-11T21:51:23.837Z,57.29
2023-02-11T21:54:31.993Z,57.31
2023-02-11T21:57:34.482Z,57.48
2023-02-11T22:00:37.693Z,57.74
2023-02-11T22:03:40.494Z,58.66
2023-02-11T22:06:43.034Z,58.74
2023-02-11T22:09:45.776Z,59.04
2023-02-11T22:12:48.163Z,59.53
2023-02-11T22:15:58.758Z,59.57
2023-02-11T22:19:02.572Z,59.74
2023-02-11T22:22:05.291Z,60.20
2023-02-11T22:25:08.012Z,60.17
2023-02-11T22:28:10.675Z,60.24
2023-02-11T22:31:15.542Z,60.36
2023-02-11T22:34:18.377Z,60.60
2023-02-11T22:37:20.956Z,61.07
2023-02-11T22:40:23.620Z,61.13
2023-02-11T22:43:27.268Z,61.42
2023-02-11T22:46:29.945Z,61.69
2023-02-11T22:49:35.698Z,62.06
2023-02-11T22:52:38.361Z,62.08
2023-02-11T22:55:40.721Z,62.03
2023-02-11T22:58:43.627Z,62.55
2023-02-11T23:01:46.454Z,62.42
2023-02-11T23:04:50.030Z,62.72
2023-02-11T23:07:52.491Z,63.46
2023-02-11T23:10:55.315Z,63.78
2023-02-11T23:13:58.600Z,63.60
2023-02-11T23:17:01.227Z,64.23
2023-02-11T23:20:03.956Z,63.77
2023-02-11T23:23:06.830Z,63.60
2023-02-11T23:26:12.663Z,63.93
2023-02-11T23:29:15.598Z,64.55
2023-02-11T23:32:19.242Z,64.78
2023-02-11T23:35:24.892Z,64.72
2023-02-11T23:38:27.242Z,64.89
2023-02-11T23:41:29.883Z,64.95
2023-02-11T23:44:32.204Z,65.07
2023-02-11T23:47:35.293Z,66.08
2023-02-11T23:50:39.637Z,65.21
2023-02-11T23:53:42.434Z,65.26
2023-02-11T23:56:44.813Z,65.12
2023-02-11T23:59:49.976Z,65.36
